createdAt,value
2019-03-09T00:02:02.212Z,9.40
2019-03-09T00:04:31.985Z,9.40
2019-03-09T00:07:01.787Z,9.40
2019-03-09T00:09:31.567Z,9.30
2019-03-09T00:12:01.619Z,9.30
2019-03-09T00:14:32.458Z,9.30
2019-03-09T00:17:02.250Z,9.40
2019-03-09T00:19:32.018Z,9.40
2019-03-09T00:22:01.791Z,9.40
2019-03-09T00:24:33.478Z,9.40
2019-03-09T00:27:07.900Z,9.40
2019-03-09T00:29:45.062Z,9.40
2019-03-09T00:32:16.490Z,9.50
2019-03-09T00:34:46.262Z,9.50
2019-03-09T00:37:16.052Z,9.50
2019-03-09T00:39:45.839Z,9.50
2019-03-09T00:42:15.616Z,9.50
2019-03-09T00:44:45.389Z,9.50
2019-03-09T00:47:15.178Z,9.50
2019-03-09T00:49:44.943Z,9.50
2019-03-09T00:52:14.744Z,9.40
2019-03-09T00:54:44.531Z,9.40
2019-03-09T00:57:14.306Z,9.40
2019-03-09T00:59:44.096Z,9.40
2019-03-09T01:02:13.878Z,9.30
2019-03-09T01:04:43.662Z,9.30
2019-03-09T01:07:13.453Z,9.30
2019-03-09T01:09:43.229Z,9.20
2019-03-09T01:12:13.004Z,9.20
2019-03-09T01:14:42.782Z,9.20
2019-03-09T01:17:12.550Z,9.20
2019-03-09T01:19:42.331Z,9.10
2019-03-09T01:22:12.110Z,9.10
2019-03-09T01:24:41.885Z,9.10
2019-03-09T01:27:11.651Z,9.00
2019-03-09T01:29:41.427Z,9.00
2019-03-09T01:32:11.208Z,9.00
2019-03-09T01:34:40.985Z,9.00
2019-03-09T01:37:10.823Z,9.00
2019-03-09T01:39:40.670Z,8.90
2019-03-09T01:42:10.507Z,8.90
2019-03-09T01:44:40.293Z,8.80
2019-03-09T01:47:10.064Z,8.80
2019-03-09T01:49:39.849Z,8.70
2019-03-09T01:52:09.617Z,8.70
2019-03-09T01:54:39.466Z,8.70
2019-03-09T01:57:09.240Z,8.70
2019-03-09T01:59:39.023Z,8.70
2019-03-09T02:02:08.859Z,8.70
2019-03-09T02:04:38.643Z,8.60
2019-03-09T02:07:08.413Z,8.60
2019-03-09T02:09:38.268Z,8.60
2019-03-09T02:12:08.040Z,8.60
2019-03-09T02:14:37.823Z,8.50
2019-03-09T02:17:07.595Z,8.50
2019-03-09T02:19:40.555Z,8.50
2019-03-09T02:22:10.325Z,8.50
2019-03-09T02:24:40.107Z,8.50
2019-03-09T02:27:09.951Z,8.50
2019-03-09T02:29:39.741Z,8.50
2019-03-09T02:32:09.514Z,8.50
2019-03-09T02:34:39.297Z,8.50
2019-03-09T02:37:09.081Z,8.50
2019-03-09T02:39:40.509Z,8.50
2019-03-09T02:42:10.310Z,8.40
2019-03-09T02:44:40.076Z,8.40
2019-03-09T02:47:09.892Z,8.40
2019-03-09T02:49:39.641Z,8.40
2019-03-09T02:52:09.414Z,8.30
2019-03-09T02:54:39.254Z,8.30
2019-03-09T02:57:09.046Z,8.40
2019-03-09T02:59:38.837Z,8.30
2019-03-09T03:02:13.272Z,8.30
2019-03-09T03:04:43.060Z,8.30
2019-03-09T03:07:12.821Z,8.30
2019-03-09T03:09:43.570Z,8.40
2019-03-09T03:12:13.420Z,8.40
2019-03-09T03:14:43.176Z,8.40
2019-03-09T03:17:12.961Z,8.50
2019-03-09T03:19:42.737Z,8.50
2019-03-09T03:22:12.588Z,8.50
2019-03-09T03:24:42.367Z,8.60
2019-03-09T03:27:12.168Z,8.60
2019-03-09T03:29:41.971Z,8.60
2019-03-09T03:32:11.825Z,8.60
2019-03-09T03:34:41.573Z,8.60
2019-03-09T03:37:11.346Z,8.60
2019-03-09T03:39:42.503Z,8.60
2019-03-09T03:42:12.290Z,8.70
2019-03-09T03:44:44.974Z,8.70
2019-03-09T03:47:14.898Z,8.80
2019-03-09T03:49:44.676Z,8.80
2019-03-09T03:52:14.455Z,8.70
2019-03-09T03:54:44.234Z,8.70
2019-03-09T03:57:14.124Z,8.70
2019-03-09T03:59:43.911Z,8.70
2019-03-09T04:02:13.699Z,8.70
2019-03-09T04:04:43.567Z,8.70
2019-03-09T04:07:13.480Z,8.70
2019-03-09T04:09:43.393Z,8.70
2019-03-09T04:12:13.244Z,8.70
2019-03-09T04:14:43.095Z,8.70
2019-03-09T04:17:12.864Z,8.80
2019-03-09T04:19:43.628Z,8.90
2019-03-09T04:22:13.395Z,8.90
2019-03-09T04:24:43.183Z,8.90
2019-03-09T04:27:12.977Z,8.90
2019-03-09T04:29:42.811Z,9.00
2019-03-09T04:32:12.651Z,9.00
2019-03-09T04:34:42.507Z,9.00
2019-03-09T04:37:12.311Z,8.90
2019-03-09T04:39:42.069Z,8.90
2019-03-09T04:42:11.850Z,8.90
2019-03-09T04:44:41.619Z,8.90
2019-03-09T04:47:11.470Z,9.00
2019-03-09T04:49:41.259Z,9.00
2019-03-09T04:52:11.048Z,9.00
2019-03-09T04:54:40.810Z,8.90
2019-03-09T04:57:10.582Z,9.00
2019-03-09T04:59:40.354Z,9.00
2019-03-09T05:02:10.143Z,9.00
2019-03-09T05:04:42.252Z,9.00
2019-03-09T05:07:15.813Z,9.00
2019-03-09T05:09:57.243Z,9.00
2019-03-09T05:12:27.090Z,9.00
2019-03-09T05:14:56.864Z,9.10
2019-03-09T05:17:26.646Z,9.10
2019-03-09T05:19:56.414Z,9.10
2019-03-09T05:22:26.219Z,9.20
2019-03-09T05:24:55.984Z,9.20
2019-03-09T05:27:25.783Z,9.20
2019-03-09T05:29:55.532Z,9.30
2019-03-09T05:32:25.310Z,9.30
2019-03-09T05:34:55.100Z,9.30
2019-03-09T05:37:24.890Z,9.30
2019-03-09T05:39:54.672Z,9.30
2019-03-09T05:42:24.455Z,9.30
2019-03-09T05:44:54.230Z,9.30
2019-03-09T05:47:24.004Z,9.40
2019-03-09T05:49:53.788Z,9.40
2019-03-09T05:52:26.647Z,9.40
2019-03-09T05:54:56.503Z,9.40
2019-03-09T05:57:26.277Z,9.40
2019-03-09T05:59:56.068Z,9.40
2019-03-09T06:02:25.837Z,9.50
2019-03-09T06:04:55.617Z,9.40
2019-03-09T06:07:25.387Z,9.30
2019-03-09T06:09:55.171Z,9.30
2019-03-09T06:12:24.942Z,9.30
2019-03-09T06:14:54.723Z,9.30
2019-03-09T06:17:24.494Z,9.30
2019-03-09T06:19:54.292Z,9.30
2019-03-09T06:22:24.050Z,9.20
2019-03-09T06:24:53.828Z,9.20
2019-03-09T06:27:23.624Z,9.20
2019-03-09T06:29:53.388Z,9.20
2019-03-09T06:32:35.228Z,9.30
2019-03-09T06:35:11.366Z,9.30
2019-03-09T06:37:44.468Z,9.40
2019-03-09T06:40:14.222Z,9.60
2019-03-09T06:42:46.647Z,9.70
2019-03-09T06:45:16.859Z,9.80
2019-03-09T06:47:46.644Z,9.80
2019-03-09T06:50:17.056Z,9.90
2019-03-09T06:52:46.828Z,9.90
2019-03-09T06:55:16.632Z,10.00
2019-03-09T06:57:46.409Z,10.10
2019-03-09T07:00:33.672Z,10.20
2019-03-09T07:03:03.786Z,10.20
2019-03-09T07:05:33.575Z,10.10
2019-03-09T07:08:03.440Z,10.10
2019-03-09T07:10:33.215Z,10.10
2019-03-09T07:13:03.002Z,10.20
2019-03-09T07:15:35.392Z,10.20
2019-03-09T07:18:07.534Z,10.10
2019-03-09T07:20:37.318Z,10.10
2019-03-09T07:23:07.112Z,10.10
2019-03-09T07:25:36.914Z,10.20
2019-03-09T07:28:11.590Z,10.20
2019-03-09T07:30:42.438Z,10.30
2019-03-09T07:33:12.232Z,10.30
2019-03-09T07:35:42.092Z,10.30
2019-03-09T07:38:11.872Z,10.30
2019-03-09T07:40:41.660Z,10.30
2019-03-09T07:43:11.440Z,10.40
2019-03-09T07:45:41.222Z,10.40
2019-03-09T07:48:10.998Z,10.50
2019-03-09T07:50:40.792Z,10.50
2019-03-09T07:53:10.584Z,10.50
2019-03-09T07:55:40.363Z,10.60
2019-03-09T07:58:10.171Z,10.60
2019-03-09T08:00:40.206Z,10.60
2019-03-09T08:03:09.990Z,10.70
2019-03-09T08:05:39.780Z,10.60
2019-03-09T08:08:09.576Z,10.70
2019-03-09T08:10:39.394Z,10.70
2019-03-09T08:13:09.155Z,10.80
2019-03-09T08:15:39.012Z,10.80
2019-03-09T08:18:08.812Z,10.80
2019-03-09T08:20:38.598Z,10.80
2019-03-09T08:23:09.374Z,10.90
2019-03-09T08:25:39.173Z,10.90
2019-03-09T08:28:08.950Z,11.00
2019-03-09T08:30:39.184Z,11.10
2019-03-09T08:33:08.966Z,11.10
2019-03-09T08:35:38.739Z,11.20
2019-03-09T08:38:08.532Z,11.30
2019-03-09T08:40:38.304Z,11.30
2019-03-09T08:43:08.086Z,11.20
2019-03-09T08:45:37.898Z,11.10
2019-03-09T08:48:07.737Z,11.10
2019-03-09T08:50:38.586Z,11.20
2019-03-09T08:53:08.368Z,11.10
2019-03-09T08:55:38.202Z,11.20
2019-03-09T08:58:08.083Z,11.30
2019-03-09T09:00:37.909Z,11.40
2019-03-09T09:03:07.692Z,11.40
2019-03-09T09:05:39.579Z,11.50
2019-03-09T09:08:09.025Z,11.50
2019-03-09T09:10:38.854Z,11.60
2019-03-09T09:13:08.640Z,11.70
2019-03-09T09:15:38.423Z,11.70
2019-03-09T09:18:08.234Z,11.80
2019-03-09T09:20:38.008Z,11.70
2019-03-09T09:23:07.798Z,11.80
2019-03-09T09:25:37.586Z,11.80
2019-03-09T09:28:07.362Z,11.80
2019-03-09T09:30:37.145Z,11.80
2019-03-09T09:33:06.923Z,11.90
2019-03-09T09:35:36.723Z,11.90
2019-03-09T09:38:07.572Z,12.00
2019-03-09T09:40:37.357Z,12.00
2019-03-09T09:43:07.148Z,12.00
2019-03-09T09:45:36.939Z,11.90
2019-03-09T09:48:06.728Z,12.00
2019-03-09T09:50:36.509Z,12.00
2019-03-09T09:53:06.291Z,12.10
2019-03-09T09:55:36.067Z,12.00
2019-03-09T09:58:05.892Z,12.10
2019-03-09T10:00:35.679Z,12.10
2019-03-09T10:03:05.540Z,12.20
2019-03-09T10:05:35.331Z,12.20
2019-03-09T10:08:05.130Z,12.20
2019-03-09T10:10:34.974Z,12.20
2019-03-09T10:13:04.812Z,12.20
2019-03-09T10:15:34.679Z,12.30
2019-03-09T10:18:04.519Z,12.40
2019-03-09T10:20:34.345Z,12.60
2019-03-09T10:23:05.188Z,12.70
2019-03-09T10:25:35.119Z,12.70
2019-03-09T10:28:04.904Z,12.90
2019-03-09T10:30:34.784Z,13.00
2019-03-09T10:33:04.655Z,13.10
2019-03-09T10:35:34.436Z,13.10
2019-03-09T10:38:04.931Z,13.00
2019-03-09T10:40:34.695Z,13.00
2019-03-09T10:43:04.563Z,13.00
2019-03-09T10:45:34.343Z,13.00
2019-03-09T10:48:04.277Z,13.00
2019-03-09T10:50:34.067Z,13.00
2019-03-09T10:53:03.848Z,13.00
2019-03-09T10:55:34.782Z,12.90
2019-03-09T10:58:05.291Z,12.90
2019-03-09T11:00:39.897Z,13.00
2019-03-09T11:03:09.666Z,13.00
2019-03-09T11:05:40.503Z,13.10
2019-03-09T11:08:10.368Z,13.10
2019-03-09T11:10:40.145Z,13.00
2019-03-09T11:13:09.943Z,13.00
2019-03-09T11:15:39.791Z,13.10
2019-03-09T11:18:09.583Z,13.10
2019-03-09T11:20:39.372Z,13.20
2019-03-09T11:23:09.185Z,13.30
2019-03-09T11:25:38.979Z,13.20
2019-03-09T11:28:10.494Z,13.30
2019-03-09T11:30:40.355Z,13.40
2019-03-09T11:33:10.123Z,13.60
2019-03-09T11:35:39.975Z,13.80
2019-03-09T11:38:09.781Z,13.90
2019-03-09T11:40:39.559Z,14.10
2019-03-09T11:43:09.364Z,14.10
2019-03-09T11:45:39.136Z,14.00
2019-03-09T11:48:09.004Z,13.90
2019-03-09T11:50:38.791Z,13.90
2019-03-09T11:53:08.562Z,14.00
2019-03-09T11:55:38.356Z,14.00
2019-03-09T11:58:08.204Z,14.10
2019-03-09T12:00:39.717Z,14.20
2019-03-09T12:03:09.500Z,14.30
2019-03-09T12:05:39.313Z,14.40
2019-03-09T12:08:09.090Z,14.30
2019-03-09T12:10:38.913Z,14.40
2019-03-09T12:13:08.692Z,14.30
2019-03-09T12:15:38.469Z,14.30
2019-03-09T12:18:08.255Z,14.10
2019-03-09T12:20:38.090Z,14.00
2019-03-09T12:23:13.910Z,14.10
2019-03-09T12:25:43.683Z,14.20
2019-03-09T12:28:13.475Z,14.50
2019-03-09T12:30:43.268Z,14.80
2019-03-09T12:33:13.040Z,14.90
2019-03-09T12:35:44.117Z,14.90
2019-03-09T12:38:14.168Z,14.80
2019-03-09T12:40:44.016Z,14.70
2019-03-09T12:43:13.793Z,14.70
2019-03-09T12:45:43.601Z,14.50
2019-03-09T12:48:13.398Z,14.50
2019-03-09T12:50:43.181Z,14.50
2019-03-09T12:53:14.223Z,14.50
2019-03-09T12:55:44.387Z,14.40
2019-03-09T12:58:14.260Z,14.40
2019-03-09T13:00:44.079Z,14.80
2019-03-09T13:03:13.883Z,15.10
2019-03-09T13:05:43.668Z,15.10
2019-03-09T13:08:13.459Z,15.00
2019-03-09T13:10:43.263Z,15.00
2019-03-09T13:13:13.047Z,15.20
2019-03-09T13:15:42.958Z,15.30
2019-03-09T13:18:12.756Z,15.40
2019-03-09T13:20:42.568Z,15.20
2019-03-09T13:23:12.350Z,15.20
2019-03-09T13:25:42.158Z,14.90
2019-03-09T13:28:12.001Z,14.70
2019-03-09T13:30:41.775Z,14.50
2019-03-09T13:33:11.571Z,14.30
2019-03-09T13:35:41.343Z,14.20
2019-03-09T13:38:11.143Z,14.00
2019-03-09T13:40:41.004Z,14.20
2019-03-09T13:43:10.785Z,14.40
2019-03-09T13:45:40.605Z,14.50
2019-03-09T13:48:10.383Z,14.40
2019-03-09T13:50:40.175Z,13.90
2019-03-09T13:53:09.957Z,14.00
2019-03-09T13:55:39.748Z,13.90
2019-03-09T13:58:09.552Z,13.70
2019-03-09T14:00:40.733Z,13.40
2019-03-09T14:03:10.887Z,13.10
2019-03-09T14:05:40.663Z,13.00
2019-03-09T14:08:10.528Z,12.70
2019-03-09T14:10:40.319Z,12.30
2019-03-09T14:13:10.210Z,12.00
2019-03-09T14:15:40.061Z,11.90
2019-03-09T14:18:09.873Z,11.70
2019-03-09T14:20:39.655Z,11.60
2019-03-09T14:23:09.451Z,11.80
2019-03-09T14:25:39.264Z,12.40
2019-03-09T14:28:09.081Z,12.70
2019-03-09T14:30:38.875Z,13.10
2019-03-09T14:33:08.661Z,13.60
2019-03-09T14:35:38.451Z,13.70
2019-03-09T14:38:08.232Z,13.50
2019-03-09T14:40:38.037Z,13.40
2019-03-09T14:43:07.817Z,13.40
2019-03-09T14:45:37.624Z,13.90
2019-03-09T14:48:07.401Z,13.90
2019-03-09T14:50:38.196Z,13.40
2019-03-09T14:53:07.979Z,13.00
2019-03-09T14:55:37.789Z,12.70
2019-03-09T14:58:07.568Z,12.50
2019-03-09T15:00:37.347Z,12.40
2019-03-09T15:03:08.215Z,12.40
2019-03-09T15:05:38.308Z,12.30
2019-03-09T15:08:08.107Z,12.20
2019-03-09T15:10:37.965Z,12.20
2019-03-09T15:13:07.751Z,12.40
2019-03-09T15:15:37.551Z,12.40
2019-03-09T15:18:07.339Z,12.20
2019-03-09T15:20:37.127Z,12.00
2019-03-09T15:23:06.911Z,11.80
2019-03-09T15:25:36.717Z,11.80
2019-03-09T15:28:06.505Z,11.90
2019-03-09T15:30:36.303Z,11.90
2019-03-09T15:33:06.137Z,12.00
2019-03-09T15:35:35.891Z,12.10
2019-03-09T15:38:05.894Z,12.30
2019-03-09T15:40:36.645Z,12.30
2019-03-09T15:43:06.467Z,12.20
2019-03-09T15:45:36.242Z,12.10
2019-03-09T15:48:06.034Z,12.40
2019-03-09T15:50:35.907Z,12.40
2019-03-09T15:53:05.834Z,12.50
2019-03-09T15:55:35.623Z,12.90
2019-03-09T15:58:05.504Z,13.20
2019-03-09T16:00:36.260Z,13.40
2019-03-09T16:03:07.402Z,13.10
2019-03-09T16:05:37.265Z,12.80
2019-03-09T16:08:07.060Z,12.60
2019-03-09T16:10:36.842Z,12.40
2019-03-09T16:13:06.639Z,12.20
2019-03-09T16:15:36.509Z,12.00
2019-03-09T16:18:06.289Z,11.90
2019-03-09T16:20:36.086Z,11.80
2019-03-09T16:23:05.874Z,11.70
2019-03-09T16:25:35.679Z,11.60
2019-03-09T16:28:05.601Z,11.30
2019-03-09T16:30:35.401Z,11.10
2019-03-09T16:33:05.179Z,10.90
2019-03-09T16:35:34.983Z,11.10
2019-03-09T16:38:04.839Z,11.30
2019-03-09T16:40:40.511Z,11.30
2019-03-09T16:43:06.107Z,11.20
2019-03-09T16:45:35.903Z,11.20
2019-03-09T16:48:05.705Z,11.20
2019-03-09T16:50:35.569Z,11.10
2019-03-09T16:53:05.351Z,11.00
2019-03-09T16:55:35.151Z,11.00
2019-03-09T16:58:04.995Z,11.00
2019-03-09T17:00:34.801Z,10.90
2019-03-09T17:03:05.643Z,10.90
2019-03-09T17:05:35.439Z,10.90
2019-03-09T17:08:05.315Z,10.90
2019-03-09T17:10:35.112Z,10.90
2019-03-09T17:13:04.897Z,10.90
2019-03-09T17:15:34.699Z,10.90
2019-03-09T17:18:04.550Z,10.80
2019-03-09T17:20:34.356Z,10.80
2019-03-09T17:23:04.146Z,10.80
2019-03-09T17:25:33.928Z,10.80
2019-03-09T17:28:04.800Z,10.80
2019-03-09T17:30:34.611Z,10.80
2019-03-09T17:33:04.394Z,10.70
2019-03-09T17:35:34.171Z,10.60
2019-03-09T17:38:03.960Z,10.60
2019-03-09T17:40:33.732Z,10.60
2019-03-09T17:43:05.054Z,10.60
2019-03-09T17:45:34.840Z,10.60
2019-03-09T17:48:04.651Z,10.50
2019-03-09T17:50:34.446Z,10.50
2019-03-09T17:53:05.120Z,10.50
2019-03-09T17:55:34.922Z,10.50
2019-03-09T17:58:04.782Z,10.50
2019-03-09T18:00:42.440Z,10.50
2019-03-09T18:03:07.699Z,10.50
2019-03-09T18:05:37.487Z,10.50
2019-03-09T18:08:07.290Z,10.50
2019-03-09T18:10:43.334Z,10.50
2019-03-09T18:13:13.126Z,10.50
2019-03-09T18:15:42.900Z,10.50
2019-03-09T18:18:12.702Z,10.50
2019-03-09T18:20:42.482Z,10.50
2019-03-09T18:23:12.349Z,10.50
2019-03-09T18:25:42.140Z,10.50
2019-03-09T18:28:12.012Z,10.50
2019-03-09T18:30:41.791Z,10.40
2019-03-09T18:33:11.588Z,10.40
2019-03-09T18:35:41.876Z,10.40
2019-03-09T18:38:11.858Z,10.30
2019-03-09T18:40:41.643Z,10.30
2019-03-09T18:43:11.422Z,10.30
2019-03-09T18:45:41.220Z,10.20
2019-03-09T18:48:11.829Z,10.20
2019-03-09T18:50:41.628Z,10.20
2019-03-09T18:53:11.410Z,10.10
2019-03-09T18:55:41.208Z,10.10
2019-03-09T18:58:10.984Z,10.10
2019-03-09T19:00:40.782Z,10.10
2019-03-09T19:03:10.574Z,10.10
2019-03-09T19:05:40.382Z,10.00
2019-03-09T19:08:11.232Z,10.00
2019-03-09T19:10:41.023Z,10.00
2019-03-09T19:13:10.861Z,10.00
2019-03-09T19:15:40.674Z,10.00
2019-03-09T19:18:10.420Z,10.00
2019-03-09T19:20:40.225Z,10.00
2019-03-09T19:23:10.072Z,10.00
2019-03-09T19:25:39.856Z,9.90
2019-03-09T19:28:09.626Z,9.90
2019-03-09T19:30:39.416Z,9.90
2019-03-09T19:33:09.259Z,9.90
2019-03-09T19:35:39.111Z,9.90
2019-03-09T19:38:08.889Z,9.90
2019-03-09T19:40:38.684Z,9.90
2019-03-09T19:43:08.460Z,9.90
2019-03-09T19:45:38.248Z,9.90
2019-03-09T19:48:08.039Z,9.90
2019-03-09T19:50:37.817Z,9.80
2019-03-09T19:53:07.591Z,9.80
2019-03-09T19:55:37.383Z,9.80
2019-03-09T19:58:07.170Z,9.80
2019-03-09T20:00:36.969Z,9.80
2019-03-09T20:03:06.744Z,9.80
2019-03-09T20:05:36.533Z,9.80
2019-03-09T20:08:06.321Z,9.80
2019-03-09T20:10:36.087Z,9.80
2019-03-09T20:13:05.905Z,9.80
2019-03-09T20:15:35.671Z,9.80
2019-03-09T20:18:05.468Z,9.70
2019-03-09T20:20:35.235Z,9.70
2019-03-09T20:23:05.082Z,9.70
2019-03-09T20:25:34.870Z,9.70
2019-03-09T20:28:04.789Z,9.80
2019-03-09T20:30:34.554Z,9.80
2019-03-09T20:33:04.360Z,9.70
2019-03-09T20:35:34.140Z,9.70
2019-03-09T20:38:03.989Z,9.70
2019-03-09T20:40:33.764Z,9.70
2019-03-09T20:43:03.606Z,9.70
2019-03-09T20:45:33.379Z,9.70
2019-03-09T20:48:03.172Z,9.70
2019-03-09T20:50:32.941Z,9.70
2019-03-09T20:53:02.738Z,9.70
2019-03-09T20:55:32.508Z,9.70
2019-03-09T20:58:02.428Z,9.80
2019-03-09T21:00:33.356Z,9.80
2019-03-09T21:03:03.143Z,9.70
2019-03-09T21:05:32.945Z,9.70
2019-03-09T21:08:02.730Z,9.70
2019-03-09T21:10:32.515Z,9.70
2019-03-09T21:13:07.478Z,9.70
2019-03-09T21:15:37.265Z,9.70
2019-03-09T21:18:07.042Z,9.70
2019-03-09T21:20:36.899Z,9.70
2019-03-09T21:23:06.665Z,9.70
2019-03-09T21:25:36.452Z,9.80
2019-03-09T21:28:06.222Z,9.80
2019-03-09T21:30:36.018Z,9.80
2019-03-09T21:33:05.795Z,9.80
2019-03-09T21:35:35.593Z,9.90
2019-03-09T21:38:05.371Z,9.90
2019-03-09T21:40:35.178Z,9.90
2019-03-09T21:43:04.960Z,9.90
2019-03-09T21:45:34.777Z,9.90
2019-03-09T21:48:04.567Z,9.90
2019-03-09T21:50:34.368Z,9.90
2019-03-09T21:53:04.174Z,9.90
2019-03-09T21:55:33.951Z,9.90
2019-03-09T21:58:04.816Z,9.80
2019-03-09T22:00:34.586Z,9.70
2019-03-09T22:03:04.587Z,9.70
2019-03-09T22:05:34.369Z,9.70
2019-03-09T22:08:04.167Z,9.60
2019-03-09T22:10:33.940Z,9.70
2019-03-09T22:13:03.739Z,9.70
2019-03-09T22:15:33.519Z,9.70
2019-03-09T22:18:03.314Z,9.70
2019-03-09T22:20:33.089Z,9.70
2019-03-09T22:23:02.908Z,9.70
2019-03-09T22:25:32.688Z,9.60
2019-03-09T22:28:02.533Z,9.60
2019-03-09T22:30:32.370Z,9.60
2019-03-09T22:33:04.484Z,9.60
2019-03-09T22:35:33.662Z,9.50
2019-03-09T22:38:03.442Z,9.50
2019-03-09T22:40:33.404Z,9.50
2019-03-09T22:43:03.174Z,9.50
2019-03-09T22:45:32.967Z,9.50
2019-03-09T22:48:02.754Z,9.50
2019-03-09T22:50:32.535Z,9.50
2019-03-09T22:53:02.312Z,9.50
2019-03-09T22:55:32.109Z,9.50
2019-03-09T22:58:01.883Z,9.50
2019-03-09T23:00:32.691Z,9.50
2019-03-09T23:03:04.064Z,9.50
2019-03-09T23:05:33.876Z,9.50
2019-03-09T23:08:03.656Z,9.50
2019-03-09T23:10:33.588Z,9.50
2019-03-09T23:13:03.471Z,9.60
2019-03-09T23:15:33.555Z,9.60
2019-03-09T23:18:03.462Z,9.60
2019-03-09T23:20:33.258Z,9.60
2019-03-09T23:23:03.045Z,9.60
2019-03-09T23:25:32.928Z,9.60
2019-03-09T23:28:02.704Z,9.60
2019-03-09T23:30:32.638Z,9.60
2019-03-09T23:33:02.420Z,9.70
2019-03-09T23:35:32.214Z,9.70
2019-03-09T23:38:01.982Z,9.70
2019-03-09T23:40:31.782Z,9.70
2019-03-09T23:43:01.576Z,9.70
2019-03-09T23:45:31.353Z,9.70
2019-03-09T23:48:01.420Z,9.70
2019-03-09T23:50:31.201Z,9.70
2019-03-09T23:53:00.982Z,9.80
2019-03-09T23:55:30.764Z,9.80
2019-03-09T23:58:00.616Z,9.80
